createdAt,value
2022-10-17T00:00:20.837Z,19.63
2022-10-17T00:03:43.410Z,19.59
2022-10-17T00:06:45.866Z,19.62
2022-10-17T00:09:48.179Z,19.65
2022-10-17T00:12:52.133Z,19.62
2022-10-17T00:15:54.946Z,19.65
2022-10-17T00:18:57.533Z,19.63
2022-10-17T00:22:00.290Z,19.62
2022-10-17T00:25:02.244Z,19.61
2022-10-17T00:28:04.637Z,19.61
2022-10-17T00:31:08.091Z,19.61
2022-10-17T00:34:10.674Z,19.62
2022-10-17T00:37:13.204Z,19.63
2022-10-17T00:40:17.075Z,19.61
2022-10-17T00:43:22.077Z,19.61
2022-10-17T00:46:29.431Z,19.61
2022-10-17T00:49:35.936Z,19.59
2022-10-17T00:52:40.752Z,19.61
2022-10-17T00:55:48.723Z,19.58
2022-10-17T00:58:51.951Z,19.62
2022-10-17T01:02:03.059Z,19.61
2022-10-17T01:05:07.692Z,19.59
2022-10-17T01:08:11.303Z,19.59
2022-10-17T01:11:40.001Z,19.58
2022-10-17T01:15:17.745Z,19.58
2022-10-17T01:18:33.654Z,19.59
2022-10-17T01:21:55.731Z,19.61
2022-10-17T01:25:22.948Z,19.61
2022-10-17T01:28:45.195Z,19.59
2022-10-17T01:31:57.545Z,19.58
2022-10-17T01:35:10.934Z,19.59
2022-10-17T01:38:43.753Z,19.59
2022-10-17T01:42:12.446Z,19.57
2022-10-17T01:45:27.407Z,19.57
2022-10-17T01:48:38.780Z,19.61
2022-10-17T01:51:48.530Z,19.57
2022-10-17T01:55:01.149Z,19.59
2022-10-17T01:58:14.251Z,19.61
2022-10-17T02:01:18.022Z,19.59
2022-10-17T02:04:20.734Z,19.61
2022-10-17T02:07:22.880Z,19.58
2022-10-17T02:10:38.929Z,19.58
2022-10-17T02:13:56.415Z,19.59
2022-10-17T02:17:24.311Z,19.59
2022-10-17T02:21:22.645Z,19.59
2022-10-17T02:24:41.635Z,19.61
2022-10-17T02:27:44.287Z,19.57
2022-10-17T02:31:04.721Z,19.61
2022-10-17T02:34:21.179Z,19.59
2022-10-17T02:37:29.412Z,19.61
2022-10-17T02:40:32.587Z,19.59
2022-10-17T02:43:36.615Z,19.58
2022-10-17T02:46:41.994Z,19.58
2022-10-17T02:49:50.218Z,19.61
2022-10-17T02:53:01.560Z,19.61
2022-10-17T02:56:15.072Z,19.61
2022-10-17T02:59:21.251Z,19.61
2022-10-17T03:02:23.679Z,19.58
2022-10-17T03:05:30.516Z,19.62
2022-10-17T03:08:32.824Z,19.59
2022-10-17T03:11:36.707Z,19.59
2022-10-17T03:14:39.801Z,19.59
2022-10-17T03:17:42.341Z,19.59
2022-10-17T03:20:45.527Z,19.58
2022-10-17T03:23:47.710Z,19.58
2022-10-17T03:26:51.568Z,19.58
2022-10-17T03:29:53.567Z,19.58
2022-10-17T03:32:58.990Z,19.57
2022-10-17T03:36:06.369Z,19.57
2022-10-17T03:39:10.699Z,19.57
2022-10-17T03:42:13.376Z,19.57
2022-10-17T03:45:16.133Z,19.57
2022-10-17T03:48:18.960Z,19.59
2022-10-17T03:51:21.630Z,19.59
2022-10-17T03:54:29.777Z,19.57
2022-10-17T03:57:37.044Z,19.61
2022-10-17T04:00:41.176Z,19.55
2022-10-17T04:03:44.534Z,19.58
2022-10-17T04:06:47.981Z,19.58
2022-10-17T04:09:50.518Z,19.58
2022-10-17T04:12:55.330Z,19.55
2022-10-17T04:16:00.527Z,19.54
2022-10-17T04:19:03.174Z,19.57
2022-10-17T04:22:11.433Z,19.57
2022-10-17T04:25:15.545Z,19.55
2022-10-17T04:28:22.499Z,19.57
2022-10-17T04:31:24.882Z,19.55
2022-10-17T04:34:50.420Z,19.55
2022-10-17T04:37:54.181Z,19.55
2022-10-17T04:41:04.632Z,19.57
2022-10-17T04:44:07.203Z,19.57
2022-10-17T04:47:14.977Z,19.54
2022-10-17T04:50:18.614Z,19.54
2022-10-17T04:53:40.381Z,19.55
2022-10-17T04:56:43.021Z,19.57
2022-10-17T04:59:46.038Z,19.57
2022-10-17T05:03:00.189Z,19.55
2022-10-17T05:06:09.161Z,19.57
2022-10-17T05:09:12.342Z,19.57
2022-10-17T05:12:15.069Z,19.58
2022-10-17T05:15:20.241Z,19.57
2022-10-17T05:18:22.699Z,19.58
2022-10-17T05:21:28.666Z,19.59
2022-10-17T05:24:31.495Z,19.59
2022-10-17T05:27:33.706Z,19.59
2022-10-17T05:30:37.725Z,19.58
2022-10-17T05:33:43.367Z,19.59
2022-10-17T05:36:46.571Z,19.62
2022-10-17T05:39:53.937Z,19.59
2022-10-17T05:42:56.372Z,19.62
2022-10-17T05:46:04.881Z,19.68
2022-10-17T05:49:19.455Z,19.78
2022-10-17T05:52:28.566Z,19.85
2022-10-17T05:55:56.196Z,19.89
2022-10-17T05:59:01.075Z,19.90
2022-10-17T06:02:24.623Z,19.95
2022-10-17T06:05:26.880Z,19.96
2022-10-17T06:08:29.512Z,20.03
2022-10-17T06:11:32.469Z,20.06
2022-10-17T06:14:35.628Z,20.12
2022-10-17T06:17:39.368Z,20.15
2022-10-17T06:20:45.280Z,20.17
2022-10-17T06:23:50.002Z,20.20
2022-10-17T06:27:00.737Z,20.22
2022-10-17T06:30:04.263Z,20.25
2022-10-17T06:33:07.641Z,20.30
2022-10-17T06:36:14.050Z,20.36
2022-10-17T06:39:16.785Z,20.39
2022-10-17T06:42:26.773Z,20.47
2022-10-17T06:45:40.783Z,20.48
2022-10-17T06:49:05.106Z,20.43
2022-10-17T06:52:23.162Z,20.39
2022-10-17T06:55:45.172Z,20.03
2022-10-17T06:59:12.609Z,19.79
2022-10-17T07:02:24.341Z,19.62
2022-10-17T07:05:28.411Z,19.61
2022-10-17T07:08:30.687Z,19.51
2022-10-17T07:11:35.985Z,19.51
2022-10-17T07:14:38.303Z,19.38
2022-10-17T07:17:41.207Z,19.44
2022-10-17T07:20:44.040Z,19.42
2022-10-17T07:23:46.967Z,19.30
2022-10-17T07:26:49.559Z,19.21
2022-10-17T07:29:52.220Z,19.25
2022-10-17T07:33:14.801Z,19.35
2022-10-17T07:36:18.283Z,19.39
2022-10-17T07:39:21.264Z,19.41
2022-10-17T07:42:24.180Z,19.36
2022-10-17T07:45:27.960Z,19.28
2022-10-17T07:48:31.982Z,19.20
2022-10-17T07:51:34.916Z,19.24
2022-10-17T07:54:37.530Z,19.28
2022-10-17T07:57:41.456Z,19.38
2022-10-17T08:00:44.026Z,19.38
2022-10-17T08:03:48.734Z,19.42
2022-10-17T08:06:56.444Z,19.42
2022-10-17T08:10:03.606Z,19.42
2022-10-17T08:13:06.206Z,19.41
2022-10-17T08:16:11.066Z,19.35
2022-10-17T08:19:13.434Z,19.50
2022-10-17T08:22:15.531Z,19.68
2022-10-17T08:25:17.900Z,19.85
2022-10-17T08:28:20.708Z,19.99
2022-10-17T08:31:23.517Z,20.13
2022-10-17T08:34:26.491Z,20.20
2022-10-17T08:37:30.693Z,20.20
2022-10-17T08:40:35.860Z,20.27
2022-10-17T08:44:07.587Z,20.26
2022-10-17T08:47:22.482Z,20.29
2022-10-17T08:50:55.622Z,20.33
2022-10-17T08:54:04.370Z,20.40
2022-10-17T08:57:13.048Z,20.46
2022-10-17T09:00:18.893Z,20.48
2022-10-17T09:03:41.882Z,20.48
2022-10-17T09:06:52.282Z,20.53
2022-10-17T09:10:17.591Z,20.58
2022-10-17T09:13:25.513Z,20.63
2022-10-17T09:16:49.652Z,20.68
2022-10-17T09:20:04.515Z,20.74
2022-10-17T09:23:20.420Z,20.80
2022-10-17T09:26:22.925Z,20.81
2022-10-17T09:29:32.354Z,20.87
2022-10-17T09:32:38.218Z,20.92
2022-10-17T09:35:42.336Z,20.94
2022-10-17T09:38:57.991Z,20.92
2022-10-17T09:42:02.944Z,20.98
2022-10-17T09:45:11.346Z,21.02
2022-10-17T09:48:23.972Z,21.04
2022-10-17T09:51:26.520Z,21.07
2022-10-17T09:54:42.140Z,21.08
2022-10-17T09:58:02.294Z,21.12
2022-10-17T10:01:25.189Z,21.12
2022-10-17T10:04:30.420Z,21.18
2022-10-17T10:07:39.988Z,21.22
2022-10-17T10:10:43.772Z,21.22
2022-10-17T10:13:48.740Z,21.28
2022-10-17T10:16:53.833Z,21.29
2022-10-17T10:19:56.695Z,21.34
2022-10-17T10:23:21.590Z,21.35
2022-10-17T10:26:27.830Z,21.39
2022-10-17T10:29:39.158Z,21.45
2022-10-17T10:32:47.833Z,21.49
2022-10-17T10:35:58.372Z,21.53
2022-10-17T10:39:02.573Z,21.62
2022-10-17T10:42:18.399Z,21.66
2022-10-17T10:49:04.357Z,21.66
2022-10-17T10:52:12.385Z,21.66
2022-10-17T10:55:25.575Z,21.67
2022-10-17T10:58:41.907Z,21.75
2022-10-17T11:02:05.421Z,21.76
2022-10-17T11:05:20.489Z,21.78
2022-10-17T11:08:42.930Z,21.85
2022-10-17T11:12:08.500Z,21.85
2022-10-17T11:15:42.115Z,21.89
2022-10-17T11:19:23.574Z,21.93
2022-10-17T11:22:39.366Z,21.94
2022-10-17T11:25:48.387Z,22.02
2022-10-17T11:28:50.833Z,22.06
2022-10-17T11:35:26.587Z,22.12
2022-10-17T11:38:51.701Z,22.13
2022-10-17T11:42:03.258Z,22.14
2022-10-17T11:45:22.486Z,22.16
2022-10-17T11:48:40.190Z,22.18
2022-10-17T11:52:05.923Z,22.18
2022-10-17T11:55:28.995Z,22.23
2022-10-17T11:58:46.158Z,22.24
2022-10-17T12:01:54.513Z,22.30
2022-10-17T12:05:34.048Z,22.33
2022-10-17T12:09:01.144Z,22.36
2022-10-17T12:12:04.647Z,22.40
2022-10-17T12:15:25.518Z,22.43
2022-10-17T12:18:28.250Z,22.45
2022-10-17T12:22:02.703Z,22.47
2022-10-17T12:25:06.465Z,22.53
2022-10-17T12:28:15.108Z,22.53
2022-10-17T12:31:18.051Z,22.57
2022-10-17T12:34:23.977Z,22.61
2022-10-17T12:37:45.652Z,22.61
2022-10-17T12:40:52.778Z,22.61
2022-10-17T12:43:56.462Z,22.67
2022-10-17T12:47:11.319Z,22.69
2022-10-17T12:51:30.847Z,22.74
2022-10-17T12:54:27.370Z,22.75
2022-10-17T12:57:48.882Z,22.78
2022-10-17T13:01:18.807Z,22.79
2022-10-17T13:04:18.989Z,22.76
2022-10-17T13:07:22.579Z,22.76
2022-10-17T13:10:28.012Z,22.78
2022-10-17T13:13:42.869Z,22.81
2022-10-17T13:16:51.500Z,22.75
2022-10-17T13:19:55.363Z,22.74
2022-10-17T13:22:58.381Z,22.65
2022-10-17T13:26:25.091Z,22.67
2022-10-17T13:29:30.198Z,22.68
2022-10-17T13:32:39.467Z,22.68
2022-10-17T13:35:59.454Z,22.68
2022-10-17T13:39:13.695Z,22.72
2022-10-17T13:42:28.023Z,22.71
2022-10-17T13:45:34.514Z,22.67
2022-10-17T13:48:38.239Z,22.64
2022-10-17T13:51:44.388Z,22.64
2022-10-17T13:54:51.635Z,22.60
2022-10-17T13:57:53.839Z,22.55
2022-10-17T14:00:57.257Z,22.55
2022-10-17T14:04:20.142Z,22.55
2022-10-17T14:07:46.113Z,22.58
2022-10-17T14:10:54.559Z,22.55
2022-10-17T14:13:59.177Z,22.57
2022-10-17T14:17:01.852Z,22.61
2022-10-17T14:20:26.644Z,22.72
2022-10-17T14:23:43.124Z,22.79
2022-10-17T14:26:55.083Z,22.78
2022-10-17T14:30:05.945Z,22.79
2022-10-17T14:33:15.167Z,22.85
2022-10-17T14:36:17.649Z,22.87
2022-10-17T14:39:23.999Z,22.84
2022-10-17T14:42:27.370Z,22.87
2022-10-17T14:45:35.033Z,22.88
2022-10-17T14:48:37.288Z,22.87
2022-10-17T14:51:50.643Z,22.90
2022-10-17T14:55:21.441Z,22.92
2022-10-17T14:58:29.927Z,22.91
2022-10-17T15:01:33.669Z,22.92
2022-10-17T15:04:35.978Z,22.91
2022-10-17T15:07:38.269Z,22.96
2022-10-17T15:10:42.239Z,22.98
2022-10-17T15:13:45.830Z,22.98
2022-10-17T15:16:48.487Z,22.98
2022-10-17T15:19:51.002Z,22.96
2022-10-17T15:22:57.098Z,22.96
2022-10-17T15:25:59.274Z,22.99
2022-10-17T15:29:02.531Z,22.96
2022-10-17T15:32:08.194Z,22.99
2022-10-17T15:35:10.537Z,22.95
2022-10-17T15:38:18.203Z,22.98
2022-10-17T15:41:20.599Z,22.96
2022-10-17T15:44:23.989Z,22.96
2022-10-17T15:47:35.218Z,22.96
2022-10-17T15:50:37.306Z,22.99
2022-10-17T15:53:39.991Z,22.87
2022-10-17T15:56:43.737Z,22.79
2022-10-17T15:59:47.644Z,22.74
2022-10-17T16:02:50.536Z,22.71
2022-10-17T16:05:53.025Z,22.67
2022-10-17T16:08:55.318Z,22.64
2022-10-17T16:11:57.977Z,22.63
2022-10-17T16:15:00.650Z,22.61
2022-10-17T16:18:05.975Z,22.63
2022-10-17T16:21:14.194Z,22.60
2022-10-17T16:24:18.054Z,22.60
2022-10-17T16:27:20.068Z,22.54
2022-10-17T16:30:24.395Z,22.60
2022-10-17T16:33:27.098Z,22.61
2022-10-17T16:36:29.650Z,22.60
2022-10-17T16:39:32.196Z,22.63
2022-10-17T16:42:34.656Z,22.64
2022-10-17T16:45:37.185Z,22.68
2022-10-17T16:51:46.932Z,22.69
2022-10-17T16:59:05.441Z,22.72
2022-10-17T17:02:22.823Z,22.71
2022-10-17T17:05:42.190Z,22.71
2022-10-17T17:08:46.278Z,22.71
2022-10-17T17:17:19.626Z,22.74
2022-10-17T17:19:58.921Z,22.67
2022-10-17T17:23:01.231Z,22.54
2022-10-17T17:26:09.791Z,22.44
2022-10-17T17:29:12.398Z,22.37
2022-10-17T17:32:14.962Z,22.25
2022-10-17T17:35:17.695Z,22.24
2022-10-17T17:38:19.818Z,22.17
2022-10-17T17:41:22.639Z,22.12
2022-10-17T17:44:24.728Z,22.02
2022-10-17T17:47:30.000Z,21.99
2022-10-17T17:50:33.270Z,21.94
2022-10-17T17:53:36.170Z,21.96
2022-10-17T17:56:39.079Z,22.02
2022-10-17T17:59:41.643Z,22.04
2022-10-17T18:02:44.502Z,22.13
2022-10-17T18:05:47.073Z,22.17
2022-10-17T18:08:53.390Z,22.21
2022-10-17T18:11:56.105Z,22.23
2022-10-17T18:14:58.325Z,22.27
2022-10-17T18:18:00.619Z,22.29
2022-10-17T18:21:02.668Z,22.36
2022-10-17T18:24:06.475Z,22.37
2022-10-17T18:27:09.538Z,22.39
2022-10-17T18:30:14.252Z,22.40
2022-10-17T18:33:17.790Z,22.44
2022-10-17T18:36:21.358Z,22.48
2022-10-17T18:39:23.630Z,22.47
2022-10-17T18:42:27.758Z,22.48
2022-10-17T18:45:32.182Z,22.50
2022-10-17T18:48:39.911Z,22.53
2022-10-17T18:51:43.128Z,22.54
2022-10-17T18:54:45.701Z,22.53
2022-10-17T18:57:51.885Z,22.51
2022-10-17T19:00:54.375Z,22.54
2022-10-17T19:03:58.466Z,22.60
2022-10-17T19:07:03.744Z,22.63
2022-10-17T19:10:06.404Z,22.60
2022-10-17T19:13:12.172Z,22.63
2022-10-17T19:16:18.902Z,22.61
2022-10-17T19:19:25.712Z,22.65
2022-10-17T19:22:28.531Z,22.65
2022-10-17T19:25:31.371Z,22.68
2022-10-17T19:28:34.345Z,22.68
2022-10-17T19:31:36.972Z,22.71
2022-10-17T19:34:39.353Z,22.68
2022-10-17T19:37:42.141Z,22.68
2022-10-17T19:40:44.721Z,22.69
2022-10-17T19:43:47.571Z,22.68
2022-10-17T19:46:50.768Z,22.65
2022-10-17T19:49:53.120Z,22.64
2022-10-17T19:52:55.301Z,22.63
2022-10-17T19:55:59.152Z,22.61
2022-10-17T19:59:01.551Z,22.63
2022-10-17T20:02:04.045Z,22.64
2022-10-17T20:05:18.601Z,22.63
2022-10-17T20:08:21.724Z,22.65
2022-10-17T20:11:26.433Z,22.63
2022-10-17T20:14:28.942Z,22.64
2022-10-17T20:17:31.213Z,22.63
2022-10-17T20:20:38.147Z,22.61
2022-10-17T20:23:41.877Z,22.61
2022-10-17T20:26:45.345Z,22.58
2022-10-17T20:29:47.712Z,22.61
2022-10-17T20:32:55.228Z,22.58
2022-10-17T20:36:03.620Z,22.57
2022-10-17T20:39:07.283Z,22.55
2022-10-17T20:42:09.612Z,22.51
2022-10-17T20:45:12.193Z,22.48
2022-10-17T20:48:16.586Z,22.44
2022-10-17T20:51:19.564Z,22.34
2022-10-17T20:54:22.474Z,22.29
2022-10-17T20:57:25.104Z,22.23
2022-10-17T21:00:29.067Z,22.18
2022-10-17T21:03:31.345Z,22.13
2022-10-17T21:06:33.484Z,22.09
2022-10-17T21:09:35.783Z,22.03
2022-10-17T21:12:53.142Z,21.99
2022-10-17T21:16:04.266Z,21.96
2022-10-17T21:19:15.733Z,21.93
2022-10-17T21:22:20.229Z,21.89
2022-10-17T21:25:24.823Z,21.85
2022-10-17T21:28:27.715Z,21.80
2022-10-17T21:31:30.876Z,21.79
2022-10-17T21:34:33.944Z,21.75
2022-10-17T21:37:35.923Z,21.73
2022-10-17T21:40:39.127Z,21.67
2022-10-17T21:43:52.589Z,21.69
2022-10-17T21:46:55.829Z,21.65
2022-10-17T21:49:57.932Z,21.63
2022-10-17T21:53:00.254Z,21.62
2022-10-17T21:56:05.519Z,21.56
2022-10-17T21:59:08.197Z,21.53
2022-10-17T22:02:10.427Z,21.53
2022-10-17T22:05:12.908Z,21.52
2022-10-17T22:08:14.980Z,21.49
2022-10-17T22:11:28.106Z,21.46
2022-10-17T22:14:30.656Z,21.46
2022-10-17T22:17:33.538Z,21.43
2022-10-17T22:20:35.899Z,21.45
2022-10-17T22:23:38.417Z,21.43
2022-10-17T22:26:41.544Z,21.42
2022-10-17T22:29:44.463Z,21.42
2022-10-17T22:32:47.616Z,21.38
2022-10-17T22:35:50.657Z,21.32
2022-10-17T22:38:53.233Z,21.32
2022-10-17T22:41:56.660Z,21.28
2022-10-17T22:44:59.337Z,21.27
2022-10-17T22:48:02.018Z,21.25
2022-10-17T22:51:04.278Z,21.21
2022-10-17T22:54:06.440Z,21.19
2022-10-17T22:57:08.849Z,21.19
2022-10-17T23:00:12.261Z,21.17
2022-10-17T23:03:16.654Z,21.18
2022-10-17T23:06:20.243Z,21.14
2022-10-17T23:09:22.827Z,21.15
2022-10-17T23:12:25.664Z,21.11
2022-10-17T23:15:27.847Z,21.09
2022-10-17T23:21:33.304Z,21.08
2022-10-17T23:24:36.121Z,21.07
2022-10-17T23:27:38.183Z,21.07
2022-10-17T23:30:40.927Z,21.04
2022-10-17T23:33:45.203Z,21.01
2022-10-17T23:36:47.805Z,21.01
2022-10-17T23:39:50.026Z,21.01
2022-10-17T23:42:52.316Z,20.99
2022-10-17T23:45:54.378Z,20.98
2022-10-17T23:48:58.071Z,20.94
2022-10-17T23:52:00.313Z,20.94
2022-10-17T23:55:02.494Z,20.92
2022-10-17T23:58:05.002Z,20.91
